PWSweather.com
Personal Weather Stations
Station Observations
TARRYHILL
Tarrytown, NY 10591

Tarrytown, NY 10591

Lat: 41.05185, Lon: -73.85296

Elevation: 341

Station Type: Davis Vantage Vue

www.tarrytownnyweather.com

High Low Average
Temperature 74.2°F23.4°F 59.7°F15.4°F 65.9°F18.8°F
Dew Point 62.6°F17.0°F 52.3°F11.3°F 59.2°F15.1°F
Winds 5.8 mph S9.3 mph S Calm Calm 1.0 mph 1.6 mph
Wind Gusts 8.1 mph13.0 mph -- 2.2 mph3.5 mph
Humidity 97% 47% 81%
Pressure 29.99 in1015.60 in 29.88 in1011.90 in -
Precipitation 0.49 in12.40 in - -
Hour Temp Dew Point Humidity Winds Wind Gusts Pressure Precip Precip Rate Daily Precip Total
12:00 AM 66.0°F18.9°C 58.6°F14.8°C 77% 3.5 mph S5.6 kmh S 5.8 mph9.3 kmh 29.99 in1015.6 mb - 0.00 in0.0 mm 0.00 in0.0 mm
12:10 AM 66.0°F18.9°C 59.0°F15.0°C 78% 3.5 mph SSW5.6 kmh SSW 8.1 mph13.0 kmh 29.98 in1015.2 mb - 0.00 in0.0 mm 0.00 in0.0 mm
12:20 AM 66.2°F19.0°C 59.5°F15.3°C 79% 1.2 mph SW1.9 kmh SW 3.5 mph5.6 kmh 29.97 in1014.9 mb - 0.00 in0.0 mm 0.00 in0.0 mm
12:30 AM 66.2°F19.0°C 59.8°F15.4°C 80% 1.2 mph WSW1.9 kmh WSW 2.3 mph3.7 kmh 29.97 in1014.9 mb - 0.00 in0.0 mm 0.00 in0.0 mm
12:40 AM 66.2°F19.0°C 59.9°F15.5°C 80% 2.3 mph SW3.7 kmh SW 4.6 mph7.4 kmh 29.97 in1014.9 mb - 0.00 in0.0 mm 0.00 in0.0 mm
12:50 AM 66.3°F19.1°C 60.3°F15.7°C 81% 1.2 mph SW1.9 kmh SW 2.3 mph3.7 kmh 29.96 in1014.6 mb - 0.00 in0.0 mm 0.00 in0.0 mm
01:00 AM 66.5°F19.2°C 60.5°F15.8°C 81% 2.3 mph SSW3.7 kmh SSW 3.5 mph5.6 kmh 29.95 in1014.2 mb - 0.00 in0.0 mm 0.00 in0.0 mm
01:10 AM 66.7°F19.3°C 60.7°F15.9°C 81% 2.3 mph S3.7 kmh S 3.5 mph5.6 kmh 29.95 in1014.2 mb - 0.00 in0.0 mm 0.00 in0.0 mm
01:20 AM 67.0°F19.4°C 61.0°F16.1°C 81% 2.3 mph SW3.7 kmh SW 4.6 mph7.4 kmh 29.95 in1014.2 mb - 0.00 in0.0 mm 0.00 in0.0 mm
01:30 AM 67.3°F19.6°C 61.2°F16.2°C 81% 3.5 mph S5.6 kmh S 4.6 mph7.4 kmh 29.94 in1013.9 mb - 0.00 in0.0 mm 0.00 in0.0 mm
01:40 AM 67.4°F19.7°C 61.4°F16.3°C 81% 2.3 mph SW3.7 kmh SW 3.5 mph5.6 kmh 29.95 in1014.2 mb - 0.00 in0.0 mm 0.00 in0.0 mm
01:50 AM 67.4°F19.7°C 61.7°F16.5°C 82% 2.3 mph S3.7 kmh S 3.5 mph5.6 kmh 29.94 in1013.9 mb - 0.00 in0.0 mm 0.00 in0.0 mm
02:00 AM 67.2°F19.6°C 61.9°F16.6°C 83% Calm Calm 1.2 mph1.9 kmh 29.94 in1013.9 mb - 0.00 in0.0 mm 0.00 in0.0 mm
02:10 AM 67.2°F19.6°C 61.9°F16.6°C 83% Calm Calm 1.2 mph1.9 kmh 29.94 in1013.9 mb - 0.00 in0.0 mm 0.00 in0.0 mm
02:20 AM 67.3°F19.6°C 62.0°F16.7°C 83% 1.2 mph S1.9 kmh S 3.5 mph5.6 kmh 29.93 in1013.5 mb - 0.00 in0.0 mm 0.00 in0.0 mm
02:30 AM 67.4°F19.7°C 62.4°F16.9°C 84% 3.5 mph SW5.6 kmh SW 5.8 mph9.3 kmh 29.93 in1013.5 mb - 0.00 in0.0 mm 0.00 in0.0 mm
02:50 AM 65.6°F18.7°C 62.6°F17.0°C 90% 2.3 mph SW3.7 kmh SW 5.8 mph9.3 kmh 29.93 in1013.5 mb - 0.06 in1.5 mm 0.10 in2.5 mm
03:00 AM 65.0°F18.3°C 62.6°F17.0°C 92% Calm Calm 2.3 mph3.7 kmh 29.92 in1013.2 mb - 0.06 in1.5 mm 0.15 in3.8 mm
03:10 AM 64.6°F18.1°C 62.5°F16.9°C 93% Calm Calm -- 29.92 in1013.2 mb - 0.06 in1.5 mm 0.20 in5.1 mm
03:20 AM 64.2°F17.9°C 62.1°F16.7°C 93% 1.2 mph SW1.9 kmh SW 3.5 mph5.6 kmh 29.92 in1013.2 mb - 0.03 in0.8 mm 0.23 in5.8 mm
03:30 AM 63.9°F17.7°C 62.1°F16.7°C 94% Calm Calm -- 29.91 in1012.9 mb - 0.03 in0.8 mm 0.26 in6.6 mm
03:40 AM 63.7°F17.6°C 61.9°F16.6°C 94% 1.2 mph SW1.9 kmh SW 2.3 mph3.7 kmh 29.91 in1012.9 mb - 0.07 in1.8 mm 0.32 in8.1 mm
03:50 AM 63.4°F17.4°C 62.0°F16.7°C 95% 1.2 mph WSW1.9 kmh WSW 2.3 mph3.7 kmh 29.91 in1012.9 mb - 0.05 in1.3 mm 0.37 in9.4 mm
04:00 AM 63.3°F17.4°C 61.8°F16.6°C 95% 1.2 mph SW1.9 kmh SW 3.5 mph5.6 kmh 29.91 in1012.9 mb - 0.04 in1.0 mm 0.40 in10.2 mm
04:10 AM 63.1°F17.3°C 61.7°F16.5°C 95% 1.2 mph WSW1.9 kmh WSW 2.3 mph3.7 kmh 29.91 in1012.9 mb - 0.01 in0.3 mm 0.41 in10.4 mm
04:20 AM 63.0°F17.2°C 61.5°F16.4°C 95% Calm Calm -- 29.91 in1012.9 mb - 0.01 in0.3 mm 0.41 in10.4 mm
04:30 AM 63.0°F17.2°C 61.8°F16.6°C 96% Calm Calm 2.3 mph3.7 kmh 29.91 in1012.9 mb - 0.02 in0.5 mm 0.43 in10.9 mm
04:40 AM 63.0°F17.2°C 61.8°F16.6°C 96% Calm Calm -- 29.90 in1012.5 mb - 0.02 in0.5 mm 0.45 in11.4 mm
04:50 AM 63.0°F17.2°C 61.8°F16.6°C 96% Calm Calm 1.2 mph1.9 kmh 29.90 in1012.5 mb - 0.02 in0.5 mm 0.47 in11.9 mm
05:00 AM 62.9°F17.2°C 61.7°F16.5°C 96% Calm Calm 1.2 mph1.9 kmh 29.90 in1012.5 mb - 0.00 in0.0 mm 0.47 in11.9 mm
05:10 AM 62.8°F17.1°C 61.6°F16.4°C 96% 1.2 mph SW1.9 kmh SW 3.5 mph5.6 kmh 29.90 in1012.5 mb - 0.00 in0.0 mm 0.47 in11.9 mm
05:20 AM 62.6°F17.0°C 61.4°F16.3°C 96% Calm Calm 1.2 mph1.9 kmh 29.90 in1012.5 mb - 0.00 in0.0 mm 0.47 in11.9 mm
05:30 AM 62.5°F16.9°C 61.3°F16.3°C 96% Calm Calm 1.2 mph1.9 kmh 29.91 in1012.9 mb - 0.00 in0.0 mm 0.47 in11.9 mm
05:40 AM 62.4°F16.9°C 61.2°F16.2°C 96% 1.2 mph SSW1.9 kmh SSW 2.3 mph3.7 kmh 29.91 in1012.9 mb - 0.00 in0.0 mm 0.47 in11.9 mm
05:50 AM 62.3°F16.8°C 61.1°F16.2°C 96% 1.2 mph WSW1.9 kmh WSW 4.6 mph7.4 kmh 29.91 in1012.9 mb - 0.00 in0.0 mm 0.47 in11.9 mm
06:00 AM 62.2°F16.8°C 61.0°F16.1°C 96% 2.3 mph SW3.7 kmh SW 3.5 mph5.6 kmh 29.91 in1012.9 mb - 0.00 in0.0 mm 0.47 in11.9 mm
06:10 AM 62.2°F16.8°C 61.0°F16.1°C 96% 2.3 mph WSW3.7 kmh WSW 3.5 mph5.6 kmh 29.91 in1012.9 mb - 0.00 in0.0 mm 0.47 in11.9 mm
06:20 AM 62.0°F16.7°C 60.9°F16.1°C 96% 1.2 mph SW1.9 kmh SW 1.2 mph1.9 kmh 29.91 in1012.9 mb - 0.00 in0.0 mm 0.47 in11.9 mm
06:30 AM 62.0°F16.7°C 60.8°F16.0°C 96% 2.3 mph WSW3.7 kmh WSW 3.5 mph5.6 kmh 29.91 in1012.9 mb - 0.01 in0.3 mm 0.48 in12.2 mm
06:40 AM 61.9°F16.6°C 60.7°F15.9°C 96% Calm Calm 3.5 mph5.6 kmh 29.91 in1012.9 mb - 0.00 in0.0 mm 0.48 in12.2 mm
06:50 AM 61.9°F16.6°C 60.7°F15.9°C 96% Calm Calm 3.5 mph5.6 kmh 29.91 in1012.9 mb - 0.00 in0.0 mm 0.48 in12.2 mm
07:00 AM 61.8°F16.6°C 60.7°F15.9°C 96% Calm Calm 1.2 mph1.9 kmh 29.92 in1013.2 mb - 0.00 in0.0 mm 0.48 in12.2 mm
07:10 AM 61.9°F16.6°C 60.7°F15.9°C 96% Calm Calm -- 29.91 in1012.9 mb - 0.00 in0.0 mm 0.48 in12.2 mm
07:20 AM 61.9°F16.6°C 60.7°F15.9°C 96% Calm Calm 1.2 mph1.9 kmh 29.91 in1012.9 mb - 0.00 in0.0 mm 0.48 in12.2 mm
07:30 AM 61.9°F16.6°C 60.7°F15.9°C 96% Calm Calm 1.2 mph1.9 kmh 29.91 in1012.9 mb - 0.00 in0.0 mm 0.48 in12.2 mm
07:40 AM 62.0°F16.7°C 61.1°F16.2°C 97% Calm Calm -- 29.91 in1012.9 mb - 0.00 in0.0 mm 0.48 in12.2 mm
07:50 AM 62.1°F16.7°C 61.2°F16.2°C 97% 1.2 mph S1.9 kmh S 2.3 mph3.7 kmh 29.91 in1012.9 mb - 0.00 in0.0 mm 0.48 in12.2 mm
08:00 AM 62.2°F16.8°C 61.3°F16.3°C 97% Calm Calm 2.3 mph3.7 kmh 29.91 in1012.9 mb - 0.00 in0.0 mm 0.48 in12.2 mm
08:10 AM 62.3°F16.8°C 61.4°F16.3°C 97% Calm Calm -- 29.91 in1012.9 mb - 0.00 in0.0 mm 0.48 in12.2 mm
08:20 AM 62.4°F16.9°C 61.5°F16.4°C 97% 1.2 mph SW1.9 kmh SW 2.3 mph3.7 kmh 29.92 in1013.2 mb - 0.00 in0.0 mm 0.48 in12.2 mm
08:30 AM 62.5°F16.9°C 61.6°F16.4°C 97% Calm Calm 2.3 mph3.7 kmh 29.92 in1013.2 mb - 0.00 in0.0 mm 0.48 in12.2 mm
08:40 AM 62.5°F16.9°C 61.6°F16.4°C 97% Calm Calm 2.3 mph3.7 kmh 29.93 in1013.5 mb - 0.00 in0.0 mm 0.48 in12.2 mm
08:50 AM 62.6°F17.0°C 61.7°F16.5°C 97% Calm Calm -- 29.93 in1013.5 mb - 0.00 in0.0 mm 0.48 in12.2 mm
09:00 AM 62.8°F17.1°C 61.9°F16.6°C 97% Calm Calm 2.3 mph3.7 kmh 29.93 in1013.5 mb - 0.00 in0.0 mm 0.48 in12.2 mm
09:10 AM 62.9°F17.2°C 61.7°F16.5°C 96% Calm Calm 2.3 mph3.7 kmh 29.93 in1013.5 mb - 0.00 in0.0 mm 0.48 in12.2 mm
09:20 AM 62.9°F17.2°C 61.7°F16.5°C 96% Calm Calm 3.5 mph5.6 kmh 29.94 in1013.9 mb - 0.00 in0.0 mm 0.48 in12.2 mm
09:30 AM 62.9°F17.2°C 61.7°F16.5°C 96% Calm Calm 1.2 mph1.9 kmh 29.94 in1013.9 mb - 0.00 in0.0 mm 0.48 in12.2 mm
09:40 AM 63.0°F17.2°C 61.8°F16.6°C 96% 1.2 mph SW1.9 kmh SW 2.3 mph3.7 kmh 29.94 in1013.9 mb - 0.00 in0.0 mm 0.48 in12.2 mm
09:50 AM 63.0°F17.2°C 61.5°F16.4°C 95% Calm Calm -- 29.94 in1013.9 mb - 0.00 in0.0 mm 0.48 in12.2 mm
10:00 AM 63.2°F17.3°C 61.4°F16.3°C 94% 2.3 mph SW3.7 kmh SW 2.3 mph3.7 kmh 29.94 in1013.9 mb - 0.00 in0.0 mm 0.48 in12.2 mm
10:10 AM 63.4°F17.4°C 61.4°F16.3°C 93% 1.2 mph SW1.9 kmh SW 3.5 mph5.6 kmh 29.94 in1013.9 mb - 0.00 in0.0 mm 0.48 in12.2 mm
10:20 AM 64.1°F17.8°C 61.8°F16.6°C 92% 1.2 mph W1.9 kmh W 2.3 mph3.7 kmh 29.94 in1013.9 mb - 0.00 in0.0 mm 0.48 in12.2 mm
10:30 AM 64.6°F18.1°C 61.6°F16.4°C 90% 3.5 mph WSW5.6 kmh WSW 4.6 mph7.4 kmh 29.94 in1013.9 mb - 0.00 in0.0 mm 0.48 in12.2 mm
10:40 AM 64.7°F18.2°C 61.4°F16.3°C 89% Calm Calm 1.2 mph1.9 kmh 29.95 in1014.2 mb - 0.00 in0.0 mm 0.48 in12.2 mm
10:50 AM 65.1°F18.4°C 61.4°F16.3°C 88% 1.2 mph WNW1.9 kmh WNW 3.5 mph5.6 kmh 29.95 in1014.2 mb - 0.00 in0.0 mm 0.48 in12.2 mm
11:00 AM 65.4°F18.6°C 61.7°F16.5°C 88% 2.3 mph S3.7 kmh S 4.6 mph7.4 kmh 29.95 in1014.2 mb - 0.00 in0.0 mm 0.48 in12.2 mm
11:10 AM 66.3°F19.1°C 62.0°F16.7°C 86% 1.2 mph SW1.9 kmh SW 2.3 mph3.7 kmh 29.95 in1014.2 mb - 0.00 in0.0 mm 0.48 in12.2 mm
11:20 AM 66.6°F19.2°C 62.6°F17.0°C 87% Calm Calm 3.5 mph5.6 kmh 29.94 in1013.9 mb - 0.00 in0.0 mm 0.48 in12.2 mm
11:30 AM 66.8°F19.3°C 61.8°F16.6°C 84% 2.3 mph SW3.7 kmh SW 4.6 mph7.4 kmh 29.94 in1013.9 mb - 0.00 in0.0 mm 0.48 in12.2 mm
11:40 AM 67.2°F19.6°C 61.9°F16.6°C 83% 1.2 mph SW1.9 kmh SW 3.5 mph5.6 kmh 29.94 in1013.9 mb - 0.00 in0.0 mm 0.48 in12.2 mm
11:50 AM 67.4°F19.7°C 61.7°F16.5°C 82% 1.2 mph S1.9 kmh S 2.3 mph3.7 kmh 29.93 in1013.5 mb - 0.00 in0.0 mm 0.48 in12.2 mm
12:00 PM 67.3°F19.6°C 61.3°F16.3°C 81% Calm Calm 1.2 mph1.9 kmh 29.93 in1013.5 mb - 0.00 in0.0 mm 0.48 in12.2 mm
12:10 PM 67.6°F19.8°C 61.2°F16.2°C 80% 2.3 mph W3.7 kmh W 2.3 mph3.7 kmh 29.93 in1013.5 mb - 0.00 in0.0 mm 0.48 in12.2 mm
12:20 PM 67.6°F19.8°C 60.1°F15.6°C 77% 1.2 mph W1.9 kmh W 3.5 mph5.6 kmh 29.93 in1013.5 mb - 0.00 in0.0 mm 0.48 in12.2 mm
12:30 PM 68.8°F20.4°C 60.6°F15.9°C 75% 2.3 mph S3.7 kmh S 2.3 mph3.7 kmh 29.92 in1013.2 mb - 0.00 in0.0 mm 0.48 in12.2 mm
12:40 PM 69.6°F20.9°C 61.3°F16.3°C 75% Calm Calm 3.5 mph5.6 kmh 29.92 in1013.2 mb - 0.00 in0.0 mm 0.48 in12.2 mm
12:50 PM 70.0°F21.1°C 60.2°F15.7°C 71% 1.2 mph S1.9 kmh S 3.5 mph5.6 kmh 29.91 in1012.9 mb - 0.00 in0.0 mm 0.48 in12.2 mm
01:00 PM 70.4°F21.3°C 60.5°F15.8°C 71% 1.2 mph E1.9 kmh E 2.3 mph3.7 kmh 29.91 in1012.9 mb - 0.00 in0.0 mm 0.48 in12.2 mm
01:10 PM 70.3°F21.3°C 60.0°F15.6°C 70% 2.3 mph SE3.7 kmh SE 3.5 mph5.6 kmh 29.91 in1012.9 mb - 0.00 in0.0 mm 0.48 in12.2 mm
01:20 PM 70.6°F21.4°C 60.3°F15.7°C 70% 1.2 mph S1.9 kmh S 2.3 mph3.7 kmh 29.91 in1012.9 mb - 0.00 in0.0 mm 0.48 in12.2 mm
01:30 PM 70.7°F21.5°C 58.4°F14.7°C 65% 1.2 mph SW1.9 kmh SW 2.3 mph3.7 kmh 29.91 in1012.9 mb - 0.00 in0.0 mm 0.48 in12.2 mm
01:40 PM 71.1°F21.7°C 59.6°F15.3°C 67% 1.2 mph SW1.9 kmh SW 3.5 mph5.6 kmh 29.91 in1012.9 mb - 0.00 in0.0 mm 0.48 in12.2 mm
01:50 PM 71.9°F22.2°C 59.1°F15.1°C 64% 1.2 mph SSW1.9 kmh SSW 2.3 mph3.7 kmh 29.91 in1012.9 mb - 0.00 in0.0 mm 0.48 in12.2 mm
02:00 PM 72.2°F22.3°C 58.0°F14.4°C 61% Calm Calm 1.2 mph1.9 kmh 29.90 in1012.5 mb - 0.00 in0.0 mm 0.48 in12.2 mm
02:10 PM 71.9°F22.2°C 58.2°F14.6°C 62% 2.3 mph SW3.7 kmh SW 3.5 mph5.6 kmh 29.90 in1012.5 mb - 0.00 in0.0 mm 0.48 in12.2 mm
02:20 PM 71.8°F22.1°C 59.0°F15.0°C 64% 5.8 mph S9.3 kmh S 8.1 mph13.0 kmh 29.90 in1012.5 mb - 0.00 in0.0 mm 0.48 in12.2 mm
02:30 PM 72.3°F22.4°C 58.5°F14.7°C 62% 2.3 mph W3.7 kmh W 4.6 mph7.4 kmh 29.90 in1012.5 mb - 0.00 in0.0 mm 0.48 in12.2 mm
02:40 PM 72.2°F22.3°C 57.5°F14.2°C 60% 3.5 mph WSW5.6 kmh WSW 5.8 mph9.3 kmh 29.90 in1012.5 mb - 0.00 in0.0 mm 0.48 in12.2 mm
02:50 PM 72.1°F22.3°C 57.5°F14.2°C 60% 4.6 mph WSW7.4 kmh WSW 6.9 mph11.1 kmh 29.90 in1012.5 mb - 0.00 in0.0 mm 0.48 in12.2 mm
03:00 PM 72.6°F22.6°C 56.9°F13.8°C 58% 3.5 mph SW5.6 kmh SW 3.5 mph5.6 kmh 29.90 in1012.5 mb - 0.00 in0.0 mm 0.48 in12.2 mm
03:10 PM 72.2°F22.3°C 57.1°F13.9°C 59% 2.3 mph WSW3.7 kmh WSW 3.5 mph5.6 kmh 29.90 in1012.5 mb - 0.00 in0.0 mm 0.48 in12.2 mm
03:20 PM 71.6°F22.0°C 56.9°F13.8°C 60% 3.5 mph WSW5.6 kmh WSW 5.8 mph9.3 kmh 29.89 in1012.2 mb - 0.00 in0.0 mm 0.48 in12.2 mm
03:30 PM 71.8°F22.1°C 56.7°F13.7°C 59% 1.2 mph S1.9 kmh S 3.5 mph5.6 kmh 29.89 in1012.2 mb - 0.00 in0.0 mm 0.48 in12.2 mm
03:40 PM 72.2°F22.3°C 57.1°F13.9°C 59% 1.2 mph S1.9 kmh S 4.6 mph7.4 kmh 29.89 in1012.2 mb - 0.00 in0.0 mm 0.48 in12.2 mm
03:50 PM 72.7°F22.6°C 57.1°F13.9°C 58% 1.2 mph S1.9 kmh S 3.5 mph5.6 kmh 29.89 in1012.2 mb - 0.00 in0.0 mm 0.48 in12.2 mm
04:00 PM 72.5°F22.5°C 55.9°F13.3°C 56% 4.6 mph S7.4 kmh S 4.6 mph7.4 kmh 29.88 in1011.9 mb - 0.00 in0.0 mm 0.48 in12.2 mm
04:10 PM 72.5°F22.5°C 55.9°F13.3°C 56% 2.3 mph W3.7 kmh W 3.5 mph5.6 kmh 29.88 in1011.9 mb - 0.00 in0.0 mm 0.48 in12.2 mm
04:20 PM 72.5°F22.5°C 55.4°F13.0°C 55% 3.5 mph SW5.6 kmh SW 3.5 mph5.6 kmh 29.89 in1012.2 mb - 0.00 in0.0 mm 0.48 in12.2 mm
04:30 PM 73.1°F22.8°C 55.4°F13.0°C 54% 3.5 mph S5.6 kmh S 5.8 mph9.3 kmh 29.89 in1012.2 mb - 0.00 in0.0 mm 0.48 in12.2 mm
04:40 PM 73.1°F22.8°C 54.9°F12.7°C 53% Calm Calm 1.2 mph1.9 kmh 29.89 in1012.2 mb - 0.00 in0.0 mm 0.48 in12.2 mm
04:50 PM 73.6°F23.1°C 54.9°F12.7°C 52% 2.3 mph WSW3.7 kmh WSW 3.5 mph5.6 kmh 29.88 in1011.9 mb - 0.00 in0.0 mm 0.48 in12.2 mm
05:00 PM 74.2°F23.4°C 54.9°F12.7°C 51% 1.2 mph SW1.9 kmh SW 4.6 mph7.4 kmh 29.88 in1011.9 mb - 0.00 in0.0 mm 0.48 in12.2 mm
05:10 PM 74.0°F23.3°C 55.3°F12.9°C 52% 1.2 mph WSW1.9 kmh WSW 1.2 mph1.9 kmh 29.88 in1011.9 mb - 0.00 in0.0 mm 0.48 in12.2 mm
05:20 PM 74.1°F23.4°C 54.3°F12.4°C 50% 2.3 mph WSW3.7 kmh WSW 3.5 mph5.6 kmh 29.88 in1011.9 mb - 0.00 in0.0 mm 0.48 in12.2 mm
05:30 PM 73.8°F23.2°C 52.3°F11.3°C 47% Calm Calm -- 29.88 in1011.9 mb - 0.00 in0.0 mm 0.48 in12.2 mm
05:40 PM 73.9°F23.3°C 53.0°F11.7°C 48% 1.2 mph SW1.9 kmh SW 3.5 mph5.6 kmh 29.89 in1012.2 mb - 0.00 in0.0 mm 0.48 in12.2 mm
05:50 PM 74.0°F23.3°C 53.1°F11.7°C 48% Calm Calm 1.2 mph1.9 kmh 29.89 in1012.2 mb - 0.00 in0.0 mm 0.48 in12.2 mm
06:00 PM 73.9°F23.3°C 53.5°F11.9°C 49% 1.2 mph WSW1.9 kmh WSW 2.3 mph3.7 kmh 29.89 in1012.2 mb - 0.00 in0.0 mm 0.48 in12.2 mm
06:10 PM 73.9°F23.3°C 54.1°F12.3°C 50% 1.2 mph SW1.9 kmh SW 2.3 mph3.7 kmh 29.90 in1012.5 mb - 0.00 in0.0 mm 0.48 in12.2 mm
06:20 PM 73.4°F23.0°C 55.7°F13.2°C 54% Calm Calm -- 29.90 in1012.5 mb - 0.00 in0.0 mm 0.48 in12.2 mm
06:30 PM 72.9°F22.7°C 56.3°F13.5°C 56% Calm Calm -- 29.90 in1012.5 mb - 0.00 in0.0 mm 0.48 in12.2 mm
06:40 PM 70.4°F21.3°C 55.9°F13.3°C 60% Calm Calm -- 29.90 in1012.5 mb - 0.00 in0.0 mm 0.48 in12.2 mm
06:50 PM 68.1°F20.1°C 55.4°F13.0°C 64% Calm Calm -- 29.91 in1012.9 mb - 0.00 in0.0 mm 0.48 in12.2 mm
07:00 PM 66.1°F18.9°C 55.6°F13.1°C 69% Calm Calm -- 29.91 in1012.9 mb - 0.00 in0.0 mm 0.48 in12.2 mm
07:10 PM 64.5°F18.1°C 55.2°F12.9°C 72% Calm Calm -- 29.92 in1013.2 mb - 0.00 in0.0 mm 0.48 in12.2 mm
07:20 PM 63.2°F17.3°C 55.2°F12.9°C 75% Calm Calm -- 29.92 in1013.2 mb - 0.00 in0.0 mm 0.48 in12.2 mm
07:30 PM 62.3°F16.8°C 55.0°F12.8°C 77% Calm Calm -- 29.92 in1013.2 mb - 0.00 in0.0 mm 0.48 in12.2 mm
07:40 PM 61.8°F16.6°C 54.6°F12.6°C 77% Calm Calm -- 29.93 in1013.5 mb - 0.00 in0.0 mm 0.48 in12.2 mm
07:50 PM 61.4°F16.3°C 54.5°F12.5°C 78% Calm Calm -- 29.93 in1013.5 mb - 0.00 in0.0 mm 0.48 in12.2 mm
08:00 PM 61.1°F16.2°C 54.2°F12.3°C 78% Calm Calm -- 29.93 in1013.5 mb - 0.00 in0.0 mm 0.48 in12.2 mm
08:10 PM 61.1°F16.2°C 53.5°F11.9°C 76% Calm Calm -- 29.94 in1013.9 mb - 0.00 in0.0 mm 0.48 in12.2 mm
08:20 PM 60.7°F15.9°C 54.2°F12.3°C 79% Calm Calm -- 29.94 in1013.9 mb - 0.00 in0.0 mm 0.48 in12.2 mm
08:30 PM 61.6°F16.4°C 53.9°F12.2°C 76% Calm Calm 1.2 mph1.9 kmh 29.94 in1013.9 mb - 0.00 in0.0 mm 0.48 in12.2 mm
08:40 PM 62.2°F16.8°C 54.6°F12.6°C 76% Calm Calm -- 29.95 in1014.2 mb - 0.00 in0.0 mm 0.48 in12.2 mm
08:50 PM 61.8°F16.6°C 55.6°F13.1°C 80% Calm Calm -- 29.95 in1014.2 mb - 0.00 in0.0 mm 0.48 in12.2 mm
09:00 PM 61.8°F16.6°C 56.6°F13.7°C 83% Calm Calm -- 29.95 in1014.2 mb - 0.00 in0.0 mm 0.48 in12.2 mm
09:10 PM 61.9°F16.6°C 57.0°F13.9°C 84% Calm Calm -- 29.95 in1014.2 mb - 0.00 in0.0 mm 0.48 in12.2 mm
09:20 PM 61.7°F16.5°C 57.5°F14.2°C 86% Calm Calm -- 29.95 in1014.2 mb - 0.00 in0.0 mm 0.48 in12.2 mm
09:30 PM 62.3°F16.8°C 59.0°F15.0°C 89% Calm Calm -- 29.95 in1014.2 mb - 0.00 in0.0 mm 0.48 in12.2 mm
09:40 PM 61.8°F16.6°C 58.5°F14.7°C 89% Calm Calm -- 29.96 in1014.6 mb - 0.00 in0.0 mm 0.48 in12.2 mm
09:50 PM 61.7°F16.5°C 59.0°F15.0°C 91% Calm Calm -- 29.96 in1014.6 mb - 0.00 in0.0 mm 0.48 in12.2 mm
10:00 PM 61.5°F16.4°C 59.2°F15.1°C 92% Calm Calm -- 29.96 in1014.6 mb - 0.00 in0.0 mm 0.48 in12.2 mm
10:10 PM 61.6°F16.4°C 59.3°F15.2°C 92% Calm Calm -- 29.97 in1014.9 mb - 0.00 in0.0 mm 0.48 in12.2 mm
10:20 PM 61.6°F16.4°C 59.6°F15.3°C 93% Calm Calm 1.2 mph1.9 kmh 29.97 in1014.9 mb - 0.00 in0.0 mm 0.48 in12.2 mm
10:30 PM 61.6°F16.4°C 59.6°F15.3°C 93% Calm Calm -- 29.97 in1014.9 mb - 0.00 in0.0 mm 0.48 in12.2 mm
10:40 PM 61.2°F16.2°C 59.2°F15.1°C 93% Calm Calm -- 29.97 in1014.9 mb - 0.00 in0.0 mm 0.48 in12.2 mm
10:50 PM 60.9°F16.1°C 59.2°F15.1°C 94% Calm Calm -- 29.97 in1014.9 mb - 0.00 in0.0 mm 0.48 in12.2 mm
11:00 PM 60.7°F15.9°C 59.0°F15.0°C 94% Calm Calm -- 29.97 in1014.9 mb - 0.00 in0.0 mm 0.48 in12.2 mm
11:10 PM 61.0°F16.1°C 59.3°F15.2°C 94% Calm Calm -- 29.98 in1015.2 mb - 0.00 in0.0 mm 0.48 in12.2 mm
11:20 PM 60.7°F15.9°C 59.0°F15.0°C 94% Calm Calm -- 29.98 in1015.2 mb - 0.00 in0.0 mm 0.48 in12.2 mm
11:30 PM 60.3°F15.7°C 58.6°F14.8°C 94% Calm Calm -- 29.98 in1015.2 mb - 0.00 in0.0 mm 0.48 in12.2 mm
11:40 PM 60.4°F15.8°C 59.0°F15.0°C 95% Calm Calm -- 29.99 in1015.6 mb - 0.00 in0.0 mm 0.48 in12.2 mm
11:50 PM 59.7°F15.4°C 58.3°F14.6°C 95% Calm Calm -- 29.99 in1015.6 mb - 0.00 in0.0 mm 0.48 in12.2 mm